Terminal Aerodrome Forecast
Issued by NWS

Home | Current Version | Previous Version | Text Only | Print | Product List | Glossary On
Versions: 1 2 3 4 5 6 7 8 9 10 11 12 13 14 15 16 17
000
FTUS44 KTSA 020700 AAA
TAFRVS
TAF AMD
KRVS 020736Z 0208/0306 17007KT P6SM BKN060 OVC250
      TEMPO 0209/0212 VRB20G30KT 3SM -TSRA BKN040CB
     FM021200 16010KT P6SM SCT030 BKN120
     FM022100 16010KT P6SM SCT050 BKN250 PROB30 0221/0303 -TSRA
      BKN050CB=

USA.gov is the U.S. government's official web portal to all federal, state and local government web resources and services.